Time;durP1;ratioP1;P1;durP2;ratioP2;P2;SDS_P1;SDS_P2;PMS_P1;PMS_P2;Temp;Humidity;BMP_temperature;BMP_pressure;BME280_temperature;BME280_humidity;BME280_pressure;Samples;Min_cycle;Max_cycle;Signal;HPM_P1;HPM_P2
2024/03/16 00:00:06;;;;;;;23.48;10.70;;;;;;;-140.81;100.00;62400.31;5006406;28;20049;-48
2024/03/16 00:02:35;;;;;;;21.73;10.40;;;;;;;-140.81;100.00;62400.31;4989145;28;20038;-48
2024/03/16 00:05:03;;;;;;;22.65;9.93;;;;;;;-140.81;100.00;62400.31;4957994;28;20434;-44
2024/03/16 00:07:30;;;;;;;35.10;10.88;;;;;;;-140.81;100.00;62400.31;4986017;28;20050;-45
2024/03/16 00:09:57;;;;;;;20.45;9.82;;;;;;;-140.81;100.00;62400.31;4954447;28;20038;-45
2024/03/16 00:12:23;;;;;;;23.50;9.98;;;;;;;-140.81;100.00;62400.31;4985929;28;20038;-50
2024/03/16 00:14:49;;;;;;;25.23;10.05;;;;;;;-140.81;100.00;62400.31;4987205;28;20119;-45
2024/03/16 00:17:20;;;;;;;18.17;9.50;;;;;;;-140.81;100.00;62400.31;5026406;28;20509;-45
2024/03/16 00:19:46;;;;;;;20.65;10.27;;;;;;;-140.81;100.00;62400.31;4990035;28;20119;-46
2024/03/16 00:22:12;;;;;;;26.83;11.25;;;;;;;-140.81;100.00;62400.31;5005188;28;20045;-50
2024/03/16 00:24:38;;;;;;;23.23;10.63;;;;;;;-140.81;100.00;62400.31;4972881;28;20034;-54
2024/03/16 00:27:04;;;;;;;26.27;9.95;;;;;;;-140.81;100.00;62400.31;5005007;28;20044;-46
2024/03/16 00:29:30;;;;;;;21.85;9.85;;;;;;;-140.81;100.00;62400.31;5005374;28;20042;-44
2024/03/16 00:31:56;;;;;;;21.73;10.55;;;;;;;-140.81;100.00;62400.31;4988912;28;20037;-47
2024/03/16 00:34:23;;;;;;;24.02;9.90;;;;;;;-140.81;100.00;62400.31;5006941;28;20048;-49
2024/03/16 00:36:49;;;;;;;23.23;10.73;;;;;;;-140.81;100.00;62400.31;5005516;28;20128;-47
2024/03/16 00:39:18;;;;;;;17.67;8.70;;;;;;;-140.81;100.00;62400.31;5006192;28;20128;-44
2024/03/16 00:41:44;;;;;;;20.57;10.37;;;;;;;-140.81;100.00;62400.31;5005158;28;20111;-45
2024/03/16 00:44:10;;;;;;;22.92;9.55;;;;;;;-140.81;100.00;62400.31;5006750;28;20288;-48
2024/03/16 00:46:36;;;;;;;22.73;10.55;;;;;;;-140.81;100.00;62400.31;5005280;28;20038;-49
2024/03/16 00:49:03;;;;;;;23.75;10.55;;;;;;;-140.81;100.00;62400.31;5006096;28;20229;-50
2024/03/16 00:51:28;;;;;;;22.73;9.93;;;;;;;-140.81;100.00;62400.31;5004763;28;20050;-48
2024/03/16 00:53:55;;;;;;;26.48;10.60;;;;;;;-140.81;100.00;62400.31;5005131;28;20046;-48
2024/03/16 00:56:21;;;;;;;22.80;9.70;;;;;;;-140.81;100.00;62400.31;4988817;28;20540;-46
2024/03/16 00:58:47;;;;;;;20.90;9.82;;;;;;;-140.81;100.00;62400.31;5006177;28;20076;-49
2024/03/16 01:01:12;;;;;;;18.17;9.23;;;;;;;-140.81;100.00;62400.31;5022054;28;20044;-47
2024/03/16 01:03:38;;;;;;;29.02;10.15;;;;;;;-140.81;100.00;62400.31;4994591;28;20053;-45
2024/03/16 01:06:04;;;;;;;24.33;8.43;;;;;;;-140.81;100.00;62400.31;5031232;28;20133;-44
2024/03/16 01:08:30;;;;;;;22.90;9.85;;;;;;;-140.81;100.00;62400.31;5001457;28;20069;-47
2024/03/16 01:10:56;;;;;;;23.25;10.70;;;;;;;-140.81;100.00;62400.31;4987398;28;20054;-48
2024/03/16 01:13:22;;;;;;;22.75;10.95;;;;;;;-140.81;100.00;62400.31;4985888;28;20042;-49
2024/03/16 01:15:48;;;;;;;22.17;10.27;;;;;;;-140.81;100.00;62400.31;4995498;28;20069;-46
2024/03/16 01:18:14;;;;;;;25.17;11.30;;;;;;;-140.81;100.00;62400.31;5006379;28;20076;-47
2024/03/16 01:20:44;;;;;;;20.85;9.98;;;;;;;-140.81;100.00;62400.31;5004118;28;20046;-46
2024/03/16 01:23:17;;;;;;;23.88;10.02;;;;;;;-140.81;100.00;62400.31;5004958;28;20041;-47
2024/03/16 01:25:43;;;;;;;27.42;10.68;;;;;;;-140.81;100.00;62400.31;5008056;28;20056;-46
2024/03/16 01:28:08;;;;;;;26.75;10.48;;;;;;;-140.81;100.00;62400.31;5009414;28;20045;-46
2024/03/16 01:30:36;;;;;;;20.85;9.52;;;;;;;-140.81;100.00;62400.31;5009059;28;20037;-47
2024/03/16 01:33:02;;;;;;;19.88;9.80;;;;;;;-140.81;100.00;62400.31;5009008;28;20046;-51
2024/03/16 01:35:29;;;;;;;25.17;10.13;;;;;;;-140.81;100.00;62400.31;5024205;28;20054;-53
2024/03/16 01:37:54;;;;;;;24.35;10.18;;;;;;;-140.81;100.00;62400.31;5010406;28;20034;-45
2024/03/16 01:40:24;;;;;;;19.88;8.82;;;;;;;-140.81;100.00;62400.31;5010254;28;20053;-49
2024/03/16 01:42:52;;;;;;;24.73;10.57;;;;;;;-140.81;100.00;62400.31;5008579;28;20449;-44
2024/03/16 01:45:19;;;;;;;23.00;9.10;;;;;;;-140.81;100.00;62400.31;4992500;28;20037;-49
2024/03/16 01:47:47;;;;;;;24.77;10.27;;;;;;;-140.81;100.00;62400.31;5008466;28;20053;-45
2024/03/16 01:50:18;;;;;;;25.33;11.77;;;;;;;-140.81;100.00;62400.31;4976568;28;20038;-48
2024/03/16 01:52:44;;;;;;;26.45;11.38;;;;;;;-140.81;100.00;62400.31;5008368;28;20041;-45
2024/03/16 01:55:10;;;;;;;25.00;11.77;;;;;;;-140.81;100.00;62400.31;5009645;28;20057;-47
2024/03/16 01:57:37;;;;;;;25.73;10.80;;;;;;;-140.81;100.00;62400.31;5007667;28;20045;-48
2024/03/16 02:00:05;;;;;;;27.25;10.90;;;;;;;-140.81;100.00;62400.31;5008329;28;20083;-52
2024/03/16 02:02:32;;;;;;;23.33;9.27;;;;;;;-140.81;100.00;62400.31;5008112;28;20434;-47
2024/03/16 02:05:00;;;;;;;24.83;10.60;;;;;;;-140.81;100.00;62400.31;5009666;28;20123;-48
2024/03/16 02:07:26;;;;;;;28.40;11.13;;;;;;;-140.81;100.00;62400.31;4991517;28;20161;-46
2024/03/16 02:09:52;;;;;;;26.13;12.02;;;;;;;-140.81;100.00;62400.31;5008259;28;20046;-48
2024/03/16 02:12:18;;;;;;;29.10;11.60;;;;;;;-140.81;100.00;62400.31;5009611;28;20034;-48
2024/03/16 02:14:45;;;;;;;27.65;11.80;;;;;;;-140.81;100.00;62400.31;5008212;28;20053;-46
2024/03/16 02:17:11;;;;;;;23.35;10.88;;;;;;;-140.81;100.00;62400.31;5007595;28;20049;-46
2024/03/16 02:19:37;;;;;;;22.88;10.65;;;;;;;-140.81;100.00;62400.31;5009157;28;20046;-46
2024/03/16 02:22:05;;;;;;;27.67;11.43;;;;;;;-140.81;100.00;62400.31;4991309;28;20071;-49
2024/03/16 02:24:35;;;;;;;25.73;11.55;;;;;;;-140.81;100.00;62400.31;5009052;28;20038;-51
2024/03/16 02:27:01;;;;;;;;;;;;;;;-140.81;100.00;62400.31;5008900;28;20058;-46
2024/03/16 02:29:27;;;;;;;29.42;12.13;;;;;;;-140.81;100.00;62400.31;5008468;28;19924;-46
2024/03/16 02:31:56;;;;;;;34.72;12.43;;;;;;;-140.81;100.00;62400.31;5007850;28;20037;-48
2024/03/16 02:34:21;;;;;;;29.27;13.07;;;;;;;-140.81;100.00;62400.31;5007900;28;20068;-49
2024/03/16 02:36:47;;;;;;;29.75;10.38;;;;;;;-140.81;100.00;62400.31;5006534;28;20499;-47
2024/03/16 02:39:13;;;;;;;25.38;10.85;;;;;;;-140.81;100.00;62400.31;5007109;28;20073;-45
2024/03/16 02:41:40;;;;;;;27.75;11.68;;;;;;;-140.81;100.00;62400.31;5007987;28;20128;-49
2024/03/16 02:44:06;;;;;;;25.48;10.75;;;;;;;-140.81;100.00;62400.31;5008224;28;20091;-48
2024/03/16 02:46:32;;;;;;;31.13;12.07;;;;;;;-140.81;100.00;62400.31;5009411;28;20041;-48
2024/03/16 02:48:58;;;;;;;23.88;10.05;;;;;;;-140.81;100.00;62400.31;5008534;28;20702;-46
2024/03/16 02:51:24;;;;;;;27.65;10.95;;;;;;;-140.81;100.00;62400.31;5008881;28;20050;-47
2024/03/16 02:53:51;;;;;;;31.75;11.20;;;;;;;-140.81;100.00;62400.31;5008973;28;20091;-47
2024/03/16 02:56:19;;;;;;;25.95;10.93;;;;;;;-140.81;100.00;62400.31;5008763;28;20049;-47
2024/03/16 02:58:45;;;;;;;28.90;11.30;;;;;;;-140.81;100.00;62400.31;5006421;28;20038;-47
2024/03/16 03:01:10;;;;;;;26.63;10.68;;;;;;;-140.81;100.00;62400.31;5007051;28;20069;-52
2024/03/16 03:03:36;;;;;;;27.77;12.05;;;;;;;-140.81;100.00;62400.31;5006887;28;20132;-46
2024/03/16 03:06:03;;;;;;;26.85;11.13;;;;;;;-140.81;100.00;62400.31;5006790;28;20056;-50
2024/03/16 03:08:32;;;;;;;29.10;11.13;;;;;;;-140.81;100.00;62400.31;4988839;28;20040;-48
2024/03/16 03:10:58;;;;;;;29.17;11.70;;;;;;;-140.81;100.00;62400.31;4986775;28;20038;-47
2024/03/16 03:13:24;;;;;;;27.92;11.95;;;;;;;-140.81;100.00;62400.31;4987335;28;20038;-48
2024/03/16 03:15:50;;;;;;;31.92;12.40;;;;;;;-140.81;100.00;62400.31;4987279;28;20038;-44
2024/03/16 03:18:16;;;;;;;31.45;12.13;;;;;;;-140.81;100.00;62400.31;4988757;28;20048;-51
2024/03/16 03:20:41;;;;;;;31.10;11.75;;;;;;;-140.81;100.00;62400.31;5002621;28;20065;-47
2024/03/16 03:23:08;;;;;;;27.77;12.32;;;;;;;-140.81;100.00;62400.31;5008766;28;20053;-50
2024/03/16 03:25:34;;;;;;;30.55;12.65;;;;;;;-140.81;100.00;62400.31;5008452;28;20042;-47
2024/03/16 03:28:01;;;;;;;30.55;11.57;;;;;;;-140.81;100.00;62400.31;5008476;28;20042;-47
2024/03/16 03:30:27;;;;;;;26.10;11.38;;;;;;;-140.81;100.00;62400.31;5006619;28;20172;-49
2024/03/16 03:32:53;;;;;;;22.65;10.15;;;;;;;-140.81;100.00;62400.31;5006679;28;20045;-46
2024/03/16 03:35:19;;;;;;;27.48;11.90;;;;;;;-140.81;100.00;62400.31;5007825;28;20042;-49
2024/03/16 03:37:45;;;;;;;27.70;11.60;;;;;;;-140.81;100.00;62400.31;5007811;28;20072;-46
2024/03/16 03:40:11;;;;;;;26.48;11.15;;;;;;;-140.81;100.00;62400.31;5007148;28;20176;-46
2024/03/16 03:42:39;;;;;;;26.63;11.35;;;;;;;-140.81;100.00;62400.31;5006342;28;20116;-48
2024/03/16 03:45:14;;;;;;;22.48;9.20;;;;;;;-140.81;100.00;62400.31;5007981;28;20041;-51
2024/03/16 03:47:49;;;;;;;26.88;10.52;;;;;;;-140.81;100.00;62400.31;5007057;28;20107;-46
2024/03/16 03:50:26;;;;;;;25.42;10.07;;;;;;;-140.81;100.00;62400.31;4989546;28;20115;-49
2024/03/16 03:52:54;;;;;;;21.23;8.50;;;;;;;-140.81;100.00;62400.31;5006985;28;20044;-46
2024/03/16 03:55:23;;;;;;;29.60;11.30;;;;;;;-140.81;100.00;62400.31;4988311;28;20053;-48
2024/03/16 03:57:49;;;;;;;32.30;12.38;;;;;;;-140.81;100.00;62400.31;5005671;28;20060;-45
2024/03/16 04:00:15;;;;;;;21.50;10.13;;;;;;;-140.81;100.00;62400.31;5006720;28;20415;-51
2024/03/16 04:02:41;;;;;;;29.40;10.35;;;;;;;-140.81;100.00;62400.31;4987823;28;20140;-50
2024/03/16 04:05:07;;;;;;;25.38;9.90;;;;;;;-140.81;100.00;62400.31;5005845;28;20120;-46
2024/03/16 04:07:33;;;;;;;24.77;11.18;;;;;;;-140.81;100.00;62400.31;5006066;28;20567;-49
2024/03/16 04:10:00;;;;;;;24.70;10.40;;;;;;;-140.81;100.00;62400.31;5005786;28;20100;-48
2024/03/16 04:12:26;;;;;;;27.05;11.00;;;;;;;-140.81;100.00;62400.31;4990401;28;20038;-48
2024/03/16 04:14:53;;;;;;;23.58;10.25;;;;;;;-140.81;100.00;62400.31;4986023;28;20140;-49
2024/03/16 04:17:19;;;;;;;22.00;9.48;;;;;;;-140.81;100.00;62400.31;4986327;28;20552;-47
2024/03/16 04:19:46;;;;;;;28.10;10.75;;;;;;;-140.81;100.00;62400.31;4988013;28;20056;-50
2024/03/16 04:22:13;;;;;;;26.35;9.65;;;;;;;-140.81;100.00;62400.31;4997859;28;20128;-45
2024/03/16 04:24:39;;;;;;;27.80;10.02;;;;;;;-140.81;100.00;62400.31;5006251;28;20037;-48
2024/03/16 04:27:05;;;;;;;23.85;9.70;;;;;;;-140.81;100.00;62400.31;5006136;28;20081;-48
2024/03/16 04:29:31;;;;;;;24.23;10.32;;;;;;;-140.81;100.00;62400.31;5006721;28;20065;-48
2024/03/16 04:31:58;;;;;;;24.38;10.30;;;;;;;-140.81;100.00;62400.31;5006262;28;20065;-49
2024/03/16 04:34:25;;;;;;;18.42;8.82;;;;;;;-140.81;100.00;62400.31;5005083;28;20037;-47
2024/03/16 04:36:51;;;;;;;26.88;8.07;;;;;;;-140.81;100.00;62400.31;5006458;28;20398;-49
2024/03/16 04:39:20;;;;;;;23.60;10.23;;;;;;;-140.81;100.00;62400.31;5005335;28;20041;-47
2024/03/16 04:41:46;;;;;;;23.20;9.10;;;;;;;-140.81;100.00;62400.31;4972169;28;20417;-46
2024/03/16 04:44:11;;;;;;;21.95;10.25;;;;;;;-140.81;100.00;62400.31;5005289;28;20041;-47
2024/03/16 04:46:37;;;;;;;28.05;11.25;;;;;;;-140.81;100.00;62400.31;4972982;28;20042;-46
2024/03/16 04:49:04;;;;;;;24.73;10.20;;;;;;;-140.81;100.00;62400.31;5005053;28;20053;-47
2024/03/16 04:51:30;;;;;;;24.10;11.00;;;;;;;-140.81;100.00;62400.31;5006183;28;20078;-47
2024/03/16 04:53:56;;;;;;;20.88;9.20;;;;;;;-140.81;100.00;62400.31;5004415;28;20042;-48
2024/03/16 04:56:25;;;;;;;24.00;9.43;;;;;;;-140.81;100.00;62400.31;5021175;28;20052;-49
2024/03/16 04:58:51;;;;;;;20.30;10.55;;;;;;;-140.81;100.00;62400.31;5004504;28;20517;-49
2024/03/16 05:01:17;;;;;;;37.78;12.85;;;;;;;-140.81;100.00;62400.31;4988167;28;20144;-53
2024/03/16 05:03:43;;;;;;;20.40;10.00;;;;;;;-140.81;100.00;62400.31;4993723;28;20050;-47
2024/03/16 05:06:09;;;;;;;22.00;9.32;;;;;;;-140.81;100.00;62400.31;4986976;28;20093;-51
2024/03/16 05:08:35;;;;;;;25.58;9.95;;;;;;;-140.81;100.00;62400.31;5018181;28;20038;-47
2024/03/16 05:11:01;;;;;;;24.05;10.18;;;;;;;-140.81;100.00;62400.31;5001619;28;20049;-47
2024/03/16 05:13:26;;;;;;;28.63;10.80;;;;;;;-140.81;100.00;62400.31;5003918;28;20050;-46
2024/03/16 05:15:53;;;;;;;21.20;9.13;;;;;;;-140.81;100.00;62400.31;5004258;28;20033;-47
2024/03/16 05:18:19;;;;;;;26.88;9.75;;;;;;;-140.81;100.00;62400.31;5037208;28;20140;-46
2024/03/16 05:20:46;;;;;;;27.95;9.93;;;;;;;-140.81;100.00;62400.31;5006065;28;20038;-50
2024/03/16 05:23:15;;;;;;;23.67;10.35;;;;;;;-140.81;100.00;62400.31;5005000;28;20037;-46
2024/03/16 05:25:46;;;;;;;23.85;9.85;;;;;;;-140.81;100.00;62400.31;5004306;28;20485;-48
2024/03/16 05:28:11;;;;;;;31.02;12.02;;;;;;;-140.81;100.00;62400.31;4987492;28;20050;-50
2024/03/16 05:30:37;;;;;;;29.02;10.85;;;;;;;-140.81;100.00;62400.31;5004457;28;20559;-45
2024/03/16 05:33:07;;;;;;;24.42;10.57;;;;;;;-140.81;100.00;62400.31;4995927;28;20046;-52
2024/03/16 05:35:33;;;;;;;;;;;;;;;-140.81;100.00;62400.31;5004217;28;20046;-51
2024/03/16 05:37:59;;;;;;;26.00;9.95;;;;;;;-140.81;100.00;62400.31;5006023;28;20011;-47
2024/03/16 05:40:25;;;;;;;25.50;10.60;;;;;;;-140.81;100.00;62400.31;5004506;28;20041;-49
2024/03/16 05:42:51;;;;;;;21.25;9.48;;;;;;;-140.81;100.00;62400.31;5004474;28;20199;-46
2024/03/16 05:45:17;;;;;;;31.05;11.75;;;;;;;-140.81;100.00;62400.31;5003404;28;20049;-48
2024/03/16 05:47:43;;;;;;;28.67;11.13;;;;;;;-140.81;100.00;62400.31;5005852;28;20038;-46
2024/03/16 05:50:09;;;;;;;20.90;10.27;;;;;;;-140.81;100.00;62400.31;5004561;28;20058;-51
2024/03/16 05:52:37;;;;;;;20.38;9.25;;;;;;;-140.81;100.00;62400.31;5020767;28;20095;-48
2024/03/16 05:55:04;;;;;;;23.35;10.07;;;;;;;-140.81;100.00;62400.31;5004599;28;20046;-48
2024/03/16 05:57:30;;;;;;;26.23;9.82;;;;;;;-140.81;100.00;62400.31;4968850;28;20108;-46
2024/03/16 05:59:56;;;;;;;23.30;10.63;;;;;;;-140.81;100.00;62400.31;5017574;28;20073;-47
2024/03/16 06:02:22;;;;;;;20.75;10.57;;;;;;;-140.81;100.00;62400.31;5004030;28;20092;-47
2024/03/16 06:04:48;;;;;;;23.55;9.98;;;;;;;-140.81;100.00;62400.31;5005259;28;20096;-46
2024/03/16 06:07:15;;;;;;;24.00;8.90;;;;;;;-140.81;100.00;62400.31;5005537;28;20048;-50
2024/03/16 06:09:40;;;;;;;25.02;10.40;;;;;;;-140.81;100.00;62400.31;4997397;28;20085;-49
2024/03/16 06:12:06;;;;;;;21.65;10.18;;;;;;;-140.81;100.00;62400.31;4988957;28;20042;-46
2024/03/16 06:14:32;;;;;;;24.25;10.40;;;;;;;-140.81;100.00;62400.31;4989982;28;20476;-54
2024/03/16 06:16:58;;;;;;;22.17;9.63;;;;;;;-140.81;100.00;62400.31;5007198;28;20038;-49
2024/03/16 06:19:24;;;;;;;28.70;10.43;;;;;;;-140.81;100.00;62400.31;5009081;28;20044;-52
2024/03/16 06:21:50;;;;;;;25.80;10.80;;;;;;;-140.81;100.00;62400.31;5009184;28;20520;-50
2024/03/16 06:24:16;;;;;;;18.05;8.35;;;;;;;-140.81;100.00;62400.31;5007963;28;20037;-47
2024/03/16 06:26:49;;;;;;;30.25;11.13;;;;;;;-140.81;100.00;62400.31;5007411;28;20041;-49
2024/03/16 06:29:16;;;;;;;23.85;10.35;;;;;;;-140.81;100.00;62400.31;5007960;28;20050;-48
2024/03/16 06:31:44;;;;;;;27.45;9.88;;;;;;;-140.81;100.00;62400.31;5001739;28;20157;-50
2024/03/16 06:34:10;;;;;;;27.38;11.00;;;;;;;-140.81;100.00;62400.31;4989557;28;20424;-50
2024/03/16 06:36:36;;;;;;;24.58;10.07;;;;;;;-140.81;100.00;62400.31;5012365;28;20044;-48
2024/03/16 06:39:11;;;;;;;23.83;10.40;;;;;;;-140.81;100.00;62400.31;5007974;28;20045;-51
2024/03/16 06:41:37;;;;;;;24.45;10.73;;;;;;;-140.81;100.00;62400.31;5007740;28;20037;-49
2024/03/16 06:44:03;;;;;;;29.58;10.35;;;;;;;-140.81;100.00;62400.31;5009036;28;20706;-47
2024/03/16 06:46:29;;;;;;;25.65;10.52;;;;;;;-140.81;100.00;62400.31;5008777;28;20336;-49
2024/03/16 06:48:55;;;;;;;26.45;10.25;;;;;;;-140.81;100.00;62400.31;5007481;28;20060;-49
2024/03/16 06:51:21;;;;;;;22.60;10.27;;;;;;;-140.81;100.00;62400.31;5007703;28;20038;-49
2024/03/16 06:53:50;;;;;;;23.38;10.40;;;;;;;-140.81;100.00;62400.31;5008684;28;20050;-48
2024/03/16 06:56:16;;;;;;;26.02;10.43;;;;;;;-140.81;100.00;62400.31;5006816;28;20045;-50
2024/03/16 06:58:41;;;;;;;28.13;11.40;;;;;;;-140.81;100.00;62400.31;5008462;28;20099;-51
2024/03/16 07:01:12;;;;;;;26.27;11.98;;;;;;;-140.81;100.00;62400.31;5008690;28;20041;-50
2024/03/16 07:03:38;;;;;;;27.45;11.48;;;;;;;-140.81;100.00;62400.31;4998525;28;20580;-50
2024/03/16 07:06:06;;;;;;;28.60;10.70;;;;;;;-140.81;100.00;62400.31;4971442;28;20165;-52
2024/03/16 07:08:33;;;;;;;19.45;9.50;;;;;;;-140.81;100.00;62400.31;5003235;28;20046;-49
2024/03/16 07:10:59;;;;;;;24.52;10.75;;;;;;;-140.81;100.00;62400.31;5006852;28;20560;-48
2024/03/16 07:13:25;;;;;;;22.88;11.18;;;;;;;-140.81;100.00;62400.31;4990028;28;20069;-51
2024/03/16 07:15:51;;;;;;;28.50;11.25;;;;;;;-140.81;100.00;62400.31;5008300;28;20895;-53
2024/03/16 07:18:17;;;;;;;31.52;11.18;;;;;;;-140.81;100.00;62400.31;5007570;28;20146;-53
2024/03/16 07:20:46;;;;;;;25.95;10.68;;;;;;;-140.81;100.00;62400.31;5008172;28;20517;-51
2024/03/16 07:23:12;;;;;;;32.88;11.30;;;;;;;-140.81;100.00;62400.31;5007648;28;20947;-46
2024/03/16 07:25:38;;;;;;;26.15;10.77;;;;;;;-140.81;100.00;62400.31;5006684;28;20120;-49
2024/03/16 07:28:04;;;;;;;25.05;10.80;;;;;;;-140.81;100.00;62400.31;4990263;28;20049;-47
2024/03/16 07:30:30;;;;;;;30.38;10.75;;;;;;;-140.81;100.00;62400.31;5006796;28;20038;-48
2024/03/16 07:32:56;;;;;;;23.67;10.75;;;;;;;-140.81;100.00;62400.31;5007000;28;20042;-49
2024/03/16 07:35:22;;;;;;;20.48;10.27;;;;;;;-140.81;100.00;62400.31;4990997;28;20176;-51
2024/03/16 07:37:48;;;;;;;28.73;11.43;;;;;;;-140.81;100.00;62400.31;5008007;28;20132;-50
2024/03/16 07:40:15;;;;;;;26.02;11.85;;;;;;;-140.81;100.00;62400.31;4974281;28;20119;-55
2024/03/16 07:42:45;;;;;;;23.83;9.95;;;;;;;-140.81;100.00;62400.31;5006734;28;20544;-52
2024/03/16 07:45:12;;;;;;;20.60;11.10;;;;;;;-140.81;100.00;62400.31;5007174;28;20083;-48
2024/03/16 07:47:38;;;;;;;29.00;11.98;;;;;;;-140.81;100.00;62400.31;5008184;28;20124;-47
2024/03/16 07:50:05;;;;;;;27.52;11.43;;;;;;;-140.81;100.00;62400.31;5007624;28;20455;-46
2024/03/16 07:52:33;;;;;;;23.30;10.50;;;;;;;-140.81;100.00;62400.31;5007515;28;20052;-48
2024/03/16 07:54:59;;;;;;;27.10;11.93;;;;;;;-140.81;100.00;62400.31;5006361;28;20076;-47
2024/03/16 07:57:29;;;;;;;24.70;11.25;;;;;;;-140.81;100.00;62400.31;4990072;28;20434;-47
2024/03/16 07:59:55;;;;;;;32.67;10.88;;;;;;;-140.81;100.00;62400.31;5007053;28;20096;-48
2024/03/16 08:02:21;;;;;;;25.92;9.77;;;;;;;-140.81;100.00;62400.31;5007576;28;20461;-47
2024/03/16 08:04:47;;;;;;;22.55;9.75;;;;;;;-140.81;100.00;62400.31;4990804;28;20088;-46
2024/03/16 08:07:12;;;;;;;31.05;12.95;;;;;;;-140.81;100.00;62400.31;5006152;28;20046;-52
2024/03/16 08:09:38;;;;;;;27.80;9.50;;;;;;;-140.81;100.00;62400.31;4997579;28;20042;-50
2024/03/16 08:12:04;;;;;;;26.13;10.88;;;;;;;-140.81;100.00;62400.31;4987621;28;20042;-45
2024/03/16 08:14:34;;;;;;;26.63;11.40;;;;;;;-140.81;100.00;62400.31;5018896;28;20045;-48
2024/03/16 08:17:03;;;;;;;25.65;11.60;;;;;;;-140.81;100.00;62400.31;5019025;28;20567;-49
2024/03/16 08:19:32;;;;;;;25.10;10.65;;;;;;;-140.81;100.00;62400.31;5005140;28;20054;-46
2024/03/16 08:21:58;;;;;;;21.90;10.90;;;;;;;-140.81;100.00;62400.31;5007236;28;20046;-48
2024/03/16 08:24:24;;;;;;;28.58;10.48;;;;;;;-140.81;100.00;62400.31;5006879;28;20072;-47
2024/03/16 08:26:52;;;;;;;24.92;10.35;;;;;;;-140.81;100.00;62400.31;5004676;28;20042;-48
2024/03/16 08:29:18;;;;;;;30.35;11.07;;;;;;;-140.81;100.00;62400.31;5005967;28;20304;-48
2024/03/16 08:31:43;;;;;;;27.73;10.93;;;;;;;-140.81;100.00;62400.31;5004269;28;20045;-45
2024/03/16 08:34:12;;;;;;;26.33;10.50;;;;;;;-140.81;100.00;62400.31;5005488;28;20069;-47
2024/03/16 08:36:40;;;;;;;25.30;9.00;;;;;;;-140.81;100.00;62400.31;5005551;28;20046;-48
2024/03/16 08:39:07;;;;;;;30.00;10.25;;;;;;;-140.81;100.00;62400.31;5005662;28;20468;-45
2024/03/16 08:41:33;;;;;;;26.45;8.77;;;;;;;-140.81;100.00;62400.31;4988729;28;20034;-48
2024/03/16 08:43:59;;;;;;;22.33;9.65;;;;;;;-140.81;100.00;62400.31;5004931;28;20046;-47
2024/03/16 08:46:25;;;;;;;21.00;10.02;;;;;;;-140.81;100.00;62400.31;5006387;28;20555;-47
2024/03/16 08:48:51;;;;;;;24.50;10.65;;;;;;;-140.81;100.00;62400.31;4988655;28;20495;-45
2024/03/16 08:51:17;;;;;;;27.10;11.35;;;;;;;-140.81;100.00;62400.31;5005523;28;20216;-46
2024/03/16 08:53:43;;;;;;;23.95;11.60;;;;;;;-140.81;100.00;62400.31;5005000;28;20062;-48
2024/03/16 08:56:09;;;;;;;22.42;10.75;;;;;;;-140.81;100.00;62400.31;4988643;28;20115;-47
2024/03/16 08:58:35;;;;;;;25.67;11.52;;;;;;;-140.81;100.00;62400.31;4988654;28;20470;-49
2024/03/16 09:01:01;;;;;;;24.13;9.90;;;;;;;-140.81;100.00;62400.31;5004753;28;20731;-47
2024/03/16 09:03:27;;;;;;;27.08;9.93;;;;;;;-140.81;100.00;62400.31;5006217;28;20048;-48
2024/03/16 09:05:53;;;;;;;26.35;11.55;;;;;;;-140.81;100.00;62400.31;5005143;28;20038;-45
2024/03/16 09:08:19;;;;;;;22.77;11.07;;;;;;;-140.81;100.00;62400.31;4988896;28;20110;-52
2024/03/16 09:10:44;;;;;;;30.63;11.82;;;;;;;-140.81;100.00;62400.31;4988345;28;20052;-47
2024/03/16 09:13:10;;;;;;;23.27;10.70;;;;;;;-140.81;100.00;62400.31;5005695;28;20092;-46
2024/03/16 09:15:36;;;;;;;24.15;9.73;;;;;;;-140.81;100.00;62400.31;5005126;28;20041;-48
2024/03/16 09:18:03;;;;;;;27.65;11.48;;;;;;;-140.81;100.00;62400.31;5005918;28;20053;-45
2024/03/16 09:20:30;;;;;;;28.75;12.25;;;;;;;-140.81;100.00;62400.31;4988471;28;20054;-47
2024/03/16 09:22:57;;;;;;;28.10;11.15;;;;;;;-140.81;100.00;62400.31;4990144;28;20189;-48
2024/03/16 09:25:23;;;;;;;24.50;10.82;;;;;;;-140.81;100.00;62400.31;5000901;28;20161;-46
2024/03/16 09:27:49;;;;;;;22.25;10.40;;;;;;;-140.81;100.00;62400.31;4969562;28;20053;-52
2024/03/16 09:30:17;;;;;;;25.83;9.82;;;;;;;-140.81;100.00;62400.31;4985762;28;20046;-48
2024/03/16 09:32:43;;;;;;;23.27;9.60;;;;;;;-140.81;100.00;62400.31;5001260;28;20048;-49
2024/03/16 09:35:10;;;;;;;23.95;9.82;;;;;;;-140.81;100.00;62400.31;5037420;28;20379;-48
2024/03/16 09:37:39;;;;;;;18.70;9.65;;;;;;;-140.81;100.00;62400.31;5003591;28;20034;-48
2024/03/16 09:40:10;;;;;;;25.75;10.98;;;;;;;-140.81;100.00;62400.31;5005096;28;20522;-50
2024/03/16 09:42:37;;;;;;;23.10;10.57;;;;;;;-140.81;100.00;62400.31;5004236;28;20058;-50
2024/03/16 09:45:12;;;;;;;21.63;9.73;;;;;;;-140.81;100.00;62400.31;4988417;28;20042;-50
2024/03/16 09:47:39;;;;;;;20.33;9.68;;;;;;;-140.81;100.00;62400.31;5009508;28;20061;-49
2024/03/16 09:50:07;;;;;;;21.85;9.85;;;;;;;-140.81;100.00;62400.31;5041518;28;20052;-50
2024/03/16 09:52:40;;;;;;;18.52;10.10;;;;;;;-140.81;100.00;62400.31;5023924;28;20077;-52
2024/03/16 09:55:09;;;;;;;17.58;8.52;;;;;;;-140.81;100.00;62400.31;5008115;28;20046;-48
2024/03/16 09:57:39;;;;;;;15.75;8.95;;;;;;;-140.81;100.00;62400.31;4991822;28;20045;-49
2024/03/16 10:00:10;;;;;;;21.38;9.90;;;;;;;-140.81;100.00;62400.31;5009498;28;20042;-47
2024/03/16 10:02:40;;;;;;;15.93;9.35;;;;;;;-140.81;100.00;62400.31;5007861;28;20525;-48
2024/03/16 10:05:12;;;;;;;21.38;9.50;;;;;;;-140.81;100.00;62400.31;5006372;28;20088;-52
2024/03/16 10:07:38;;;;;;;21.85;8.30;;;;;;;-140.81;100.00;62400.31;4972527;28;20112;-51
2024/03/16 10:10:05;;;;;;;15.60;7.60;;;;;;;-140.81;100.00;62400.31;4990294;28;20046;-50
2024/03/16 10:12:30;;;;;;;17.80;8.68;;;;;;;-140.81;100.00;62400.31;5023858;28;20041;-53
2024/03/16 10:15:15;;;;;;;14.95;8.75;;;;;;;-140.81;100.00;62400.31;4990865;28;20477;-55
2024/03/16 10:17:42;;;;;;;12.43;7.47;;;;;;;-140.81;100.00;62400.31;5008141;28;20099;-53
2024/03/16 10:20:16;;;;;;;15.43;7.15;;;;;;;-140.81;100.00;62400.31;4991524;28;20046;-50
2024/03/16 10:22:47;;;;;;;13.13;6.68;;;;;;;-140.81;100.00;62400.31;4992341;28;20076;-49
2024/03/16 10:25:15;;;;;;;13.48;6.43;;;;;;;-140.81;100.00;62400.31;5007646;28;20502;-50
2024/03/16 10:27:44;;;;;;;10.68;6.07;;;;;;;-140.81;100.00;62400.31;5009022;28;20540;-52
2024/03/16 10:30:17;;;;;;;16.35;6.15;;;;;;;-140.81;100.00;62400.31;5007823;28;20583;-50
2024/03/16 10:32:45;;;;;;;10.98;5.15;;;;;;;-140.81;100.00;62400.31;4961478;28;20525;-53
2024/03/16 10:35:15;;;;;;;12.57;6.60;;;;;;;-140.81;100.00;62400.31;4989310;28;20050;-49
2024/03/16 10:37:45;;;;;;;7.78;4.15;;;;;;;-140.81;100.00;62400.31;4989006;28;20438;-51
2024/03/16 10:40:16;;;;;;;11.07;5.20;;;;;;;-140.81;100.00;62400.31;5004191;28;20133;-50
2024/03/16 10:42:44;;;;;;;12.13;5.80;;;;;;;-140.81;100.00;62400.31;5003649;28;20052;-50
2024/03/16 10:45:14;;;;;;;15.73;6.20;;;;;;;-140.81;100.00;62400.31;5023331;28;20136;-51
2024/03/16 10:47:42;;;;;;;11.77;5.90;;;;;;;-140.81;100.00;62400.31;5027066;28;20099;-53
2024/03/16 10:50:10;;;;;;;13.23;5.65;;;;;;;-140.81;100.00;62400.31;5027175;28;20059;-51
2024/03/16 10:52:41;;;;;;;12.25;6.05;;;;;;;-140.81;100.00;62400.31;5010852;28;20037;-49
2024/03/16 10:55:10;;;;;;;12.98;6.15;;;;;;;-140.81;100.00;62400.31;4995862;28;20053;-47